Time;durP1;ratioP1;P1;durP2;ratioP2;P2;SDS_P1;SDS_P2;PMS_P1;PMS_P2;Temp;Humidity;BMP_temperature;BMP_pressure;BME280_temperature;BME280_humidity;BME280_pressure;Samples;Min_cycle;Max_cycle;Signal;HPM_P1;HPM_P2
2022/08/16 00:00:59;;;;;;;5.90;4.00;;;;;;;19.18;72.87;99386.19;4996011;28;20041;-74
2022/08/16 00:03:25;;;;;;;4.95;3.20;;;;;;;19.22;73.09;99389.09;5024942;28;20036;-74
2022/08/16 00:05:50;;;;;;;2.50;2.28;;;;;;;19.21;72.50;99382.72;5020341;28;20057;-75
2022/08/16 00:08:17;;;;;;;4.03;3.55;;;;;;;19.13;72.83;99387.25;5009538;28;20065;-74
2022/08/16 00:10:42;;;;;;;7.82;3.60;;;;;;;19.00;73.29;99383.66;5019565;28;20030;-74
2022/08/16 00:13:08;;;;;;;4.53;3.58;;;;;;;18.94;73.47;99390.59;4999682;28;20049;-76
2022/08/16 00:15:44;;;;;;;7.20;4.03;;;;;;;18.94;73.67;99390.59;5018198;28;20021;-75
2022/08/16 00:18:10;;;;;;;6.68;5.13;;;;;;;18.91;74.03;99391.31;5005705;28;20109;-73
2022/08/16 00:20:39;;;;;;;4.63;3.97;;;;;;;18.84;74.55;99391.03;4981153;28;20033;-74
2022/08/16 00:23:05;;;;;;;8.63;5.50;;;;;;;18.79;74.72;99388.50;4998225;28;20449;-75
2022/08/16 00:25:30;;;;;;;6.18;5.57;;;;;;;18.74;75.30;99392.31;5013024;28;20038;-75
2022/08/16 00:27:56;;;;;;;14.25;6.57;;;;;;;18.63;75.68;99391.97;4998588;28;20365;-75
2022/08/16 00:30:23;;;;;;;7.30;4.82;;;;;;;18.60;75.80;99395.44;4997614;28;20026;-74
2022/08/16 00:32:52;;;;;;;10.90;6.25;;;;;;;18.59;75.94;99402.13;5010729;28;20041;-72
2022/08/16 00:35:24;;;;;;;7.95;5.40;;;;;;;18.59;75.67;99402.13;5006875;28;20112;-74
2022/08/16 00:37:50;;;;;;;6.95;5.68;;;;;;;18.64;75.88;99406.63;5014141;28;20065;-74
2022/08/16 00:40:41;;;;;;;7.40;5.75;;;;;;;18.73;75.51;99406.50;5018534;28;20086;-75
2022/08/16 00:43:16;;;;;;;9.27;6.13;;;;;;;18.77;76.12;99396.34;4998775;28;20033;-75
2022/08/16 00:46:12;;;;;;;9.88;5.07;;;;;;;18.75;76.43;99393.94;5016465;28;20057;-74
2022/08/16 00:48:39;;;;;;;4.50;4.10;;;;;;;18.73;76.31;99389.88;5000763;28;20026;-73
2022/08/16 00:51:05;;;;;;;8.60;5.35;;;;;;;18.74;76.51;99392.31;5011739;28;20074;-74
2022/08/16 00:53:31;;;;;;;6.65;4.50;;;;;;;18.77;76.87;99374.19;5013567;28;20040;-74
2022/08/16 00:56:01;;;;;;;6.13;5.15;;;;;;;18.74;76.91;99377.66;4993322;28;20531;-73
2022/08/16 00:58:29;;;;;;;6.82;4.28;;;;;;;18.71;76.73;99386.66;4994529;28;20380;-73
2022/08/16 01:00:55;;;;;;;7.68;5.38;;;;;;;18.70;77.63;99385.06;4999692;28;20112;-73
2022/08/16 01:03:24;;;;;;;11.63;4.97;;;;;;;18.70;77.30;99382.28;5013520;28;20049;-74
2022/08/16 01:05:49;;;;;;;6.28;4.70;;;;;;;18.66;77.80;99371.91;5004530;28;20023;-76
2022/08/16 01:08:19;;;;;;;6.55;4.38;;;;;;;18.64;77.47;99371.41;5012127;28;20041;-75
2022/08/16 01:10:45;;;;;;;4.40;3.63;;;;;;;18.65;77.64;99373.03;4995155;28;20062;-75
2022/08/16 01:13:17;;;;;;;3.78;3.25;;;;;;;18.67;77.56;99376.28;4988251;28;20195;-75
2022/08/16 01:15:49;;;;;;;6.88;3.83;;;;;;;18.69;77.84;99366.81;5018811;28;20365;-76
2022/08/16 01:18:17;;;;;;;8.18;4.90;;;;;;;18.72;77.86;99374.41;5008487;28;20022;-77
2022/08/16 01:20:52;;;;;;;6.35;4.43;;;;;;;18.70;77.47;99374.78;4998150;28;20113;-74
2022/08/16 01:23:36;;;;;;;5.75;4.35;;;;;;;18.71;78.03;99381.13;4995855;28;20061;-77
2022/08/16 01:26:03;;;;;;;5.20;4.70;;;;;;;18.73;77.54;99373.28;5008404;28;20029;-76
2022/08/16 01:28:29;;;;;;;6.25;4.80;;;;;;;18.71;77.90;99364.53;4999310;28;20428;-76
2022/08/16 01:30:56;;;;;;;5.03;4.45;;;;;;;18.75;78.42;99370.94;4995935;28;20084;-75
2022/08/16 01:33:22;;;;;;;5.88;4.35;;;;;;;18.72;78.12;99366.13;4989816;28;20034;-75
2022/08/16 01:36:01;;;;;;;9.77;4.22;;;;;;;18.66;78.10;99358.06;4995714;28;20118;-76
2022/08/16 01:38:32;;;;;;;4.40;3.60;;;;;;;18.64;78.39;99363.13;5011958;28;20534;-76
2022/08/16 01:41:04;;;;;;;5.55;3.42;;;;;;;18.69;78.35;99359.34;4999043;28;20030;-74
2022/08/16 01:43:31;;;;;;;8.32;4.45;;;;;;;18.74;78.13;99366.59;5020143;28;20387;-74
2022/08/16 01:46:00;;;;;;;8.13;5.57;;;;;;;18.72;78.16;99368.88;4997678;28;20030;-76
2022/08/16 01:48:28;;;;;;;5.97;4.15;;;;;;;18.69;78.59;99350.19;5015950;28;20383;-75
2022/08/16 01:50:54;;;;;;;7.90;4.65;;;;;;;18.70;78.27;99346.28;5015178;28;20029;-74
2022/08/16 01:53:20;;;;;;;7.45;5.32;;;;;;;18.75;78.65;99355.16;5020087;28;20101;-75
2022/08/16 01:55:46;;;;;;;5.28;4.03;;;;;;;18.75;79.14;99348.81;4999332;28;20491;-74
2022/08/16 01:58:15;;;;;;;6.18;4.47;;;;;;;18.80;78.95;99352.16;5005590;28;20030;-75
2022/08/16 02:00:40;;;;;;;7.13;4.45;;;;;;;18.87;79.05;99351.59;5005501;28;20014;-75
2022/08/16 02:03:06;;;;;;;4.95;4.20;;;;;;;18.89;78.76;99354.81;5000263;28;20018;-75
2022/08/16 02:05:32;;;;;;;10.20;5.03;;;;;;;18.97;78.09;99373.28;5015949;28;20030;-75
2022/08/16 02:07:58;;;;;;;7.53;5.40;;;;;;;18.98;78.58;99363.00;5007520;28;20038;-74
2022/08/16 02:10:24;;;;;;;7.97;5.10;;;;;;;18.99;78.06;99375.72;4998891;28;20048;-75
2022/08/16 02:12:50;;;;;;;5.97;4.97;;;;;;;18.98;78.25;99379.63;5018005;28;20117;-73
2022/08/16 02:15:17;;;;;;;7.35;4.85;;;;;;;19.04;78.60;99377.44;5018250;28;20053;-76
2022/08/16 02:17:42;;;;;;;9.30;4.50;;;;;;;19.07;77.90;99374.78;5009406;28;20033;-75
2022/08/16 02:20:08;;;;;;;8.63;5.47;;;;;;;19.09;77.88;99374.44;5008723;28;20494;-75
2022/08/16 02:22:35;;;;;;;7.60;4.82;;;;;;;19.11;78.46;99383.19;4995421;28;20759;-73
2022/08/16 02:25:02;;;;;;;7.18;5.07;;;;;;;19.13;78.21;99381.69;5017691;28;20049;-74
2022/08/16 02:27:27;;;;;;;5.55;4.75;;;;;;;19.17;78.32;99373.47;5001085;28;20128;-74
2022/08/16 02:29:53;;;;;;;7.03;4.90;;;;;;;19.20;77.96;99370.00;5015484;28;20079;-74
2022/08/16 02:32:18;;;;;;;6.70;4.75;;;;;;;19.29;77.68;99373.47;4990033;28;20041;-74
2022/08/16 02:34:44;;;;;;;11.05;5.43;;;;;;;19.33;77.54;99379.09;4982427;28;20064;-73
2022/08/16 02:37:09;;;;;;;9.50;5.60;;;;;;;19.30;77.91;99374.25;4996795;28;20034;-74
2022/08/16 02:39:35;;;;;;;5.15;3.70;;;;;;;19.22;77.73;99370.47;4981587;28;20034;-73
2022/08/16 02:42:01;;;;;;;3.13;2.85;;;;;;;19.18;77.62;99356.50;4979515;28;20084;-73
2022/08/16 02:44:26;;;;;;;5.28;2.70;;;;;;;19.11;78.05;99353.50;4983634;28;20098;-74
2022/08/16 02:46:52;;;;;;;3.88;2.95;;;;;;;19.13;77.59;99354.00;5003266;28;20370;-73
2022/08/16 02:49:18;;;;;;;5.80;4.20;;;;;;;19.05;77.83;99346.59;5015229;28;20026;-73
2022/08/16 02:51:43;;;;;;;5.18;2.67;;;;;;;18.98;78.08;99347.22;5015005;28;20080;-74
2022/08/16 02:54:12;;;;;;;2.22;2.03;;;;;;;18.95;78.07;99342.38;5006950;28;20034;-73
2022/08/16 02:56:38;;;;;;;2.30;1.90;;;;;;;18.93;78.42;99328.03;4997472;28;20025;-75
2022/08/16 02:59:04;;;;;;;4.30;2.90;;;;;;;18.92;78.61;99326.44;4981811;28;20104;-75
2022/08/16 03:01:31;;;;;;;3.33;2.80;;;;;;;18.90;78.29;99325.97;4996285;28;20063;-75
2022/08/16 03:03:58;;;;;;;4.82;2.38;;;;;;;18.84;78.78;99324.56;5008463;28;20026;-75
2022/08/16 03:06:25;;;;;;;4.57;2.42;;;;;;;18.82;78.43;99333.25;4985051;28;20029;-75
2022/08/16 03:08:51;;;;;;;3.25;2.30;;;;;;;18.76;79.05;99336.56;5015583;28;20041;-75
2022/08/16 03:11:17;;;;;;;3.83;3.13;;;;;;;18.69;78.90;99334.41;4980636;28;20022;-74
2022/08/16 03:13:45;;;;;;;3.50;2.63;;;;;;;18.65;78.66;99339.03;4998600;28;20079;-75
2022/08/16 03:16:11;;;;;;;3.40;2.22;;;;;;;18.60;79.15;99326.22;5013693;28;20037;-75
2022/08/16 03:18:37;;;;;;;4.90;2.10;;;;;;;18.61;79.46;99327.81;5001446;28;20061;-76
2022/08/16 03:21:02;;;;;;;3.72;2.20;;;;;;;18.62;79.04;99329.44;4983520;28;20491;-75
2022/08/16 03:23:28;;;;;;;5.20;3.30;;;;;;;18.61;79.04;99327.81;5017362;28;20038;-74
2022/08/16 03:25:53;;;;;;;3.80;2.35;;;;;;;18.61;78.91;99327.81;5014303;28;20049;-75
2022/08/16 03:28:22;;;;;;;2.05;1.85;;;;;;;18.63;78.82;99325.53;5001400;28;20032;-75
2022/08/16 03:30:47;;;;;;;1.70;1.50;;;;;;;18.73;78.43;99328.97;4987046;28;20041;-75
2022/08/16 03:33:13;;;;;;;2.75;1.67;;;;;;;18.88;78.07;99324.72;4996998;28;20026;-75
2022/08/16 03:35:40;;;;;;;1.98;1.70;;;;;;;19.05;77.79;99331.97;4997699;28;20378;-77
2022/08/16 03:38:08;;;;;;;1.80;1.30;;;;;;;19.14;76.91;99338.16;5009654;28;20113;-76
2022/08/16 03:40:34;;;;;;;1.83;1.65;;;;;;;19.13;76.46;99342.09;5010060;28;20032;-76
2022/08/16 03:43:04;;;;;;;5.43;2.80;;;;;;;19.09;76.94;99349.50;4998012;28;20033;-75
2022/08/16 03:45:30;;;;;;;5.07;3.47;;;;;;;18.93;77.25;99344.66;5011548;28;20037;-76
2022/08/16 03:47:56;;;;;;;4.75;3.42;;;;;;;18.91;76.80;99352.53;4995759;28;20030;-74
2022/08/16 03:50:21;;;;;;;3.75;2.97;;;;;;;18.81;77.17;99352.97;4987581;28;20053;-74
2022/08/16 03:52:47;;;;;;;3.92;2.50;;;;;;;18.76;77.30;99345.72;4999805;28;20089;-75
2022/08/16 03:55:12;;;;;;;2.58;2.05;;;;;;;18.72;77.13;99352.28;4982724;28;20089;-74
2022/08/16 03:57:38;;;;;;;2.30;2.10;;;;;;;18.68;77.61;99354.94;5009767;28;20121;-75
2022/08/16 04:00:15;;;;;;;5.03;3.30;;;;;;;18.62;77.60;99346.06;4999839;28;21509;-74
2022/08/16 04:02:42;;;;;;;3.17;2.88;;;;;;;18.59;77.86;99346.75;5012058;28;20109;-74
2022/08/16 04:05:09;;;;;;;3.72;2.78;;;;;;;18.55;78.40;99351.34;5012034;28;20032;-73
2022/08/16 04:07:35;;;;;;;4.22;2.45;;;;;;;18.55;78.25;99350.56;5013645;28;20115;-74
2022/08/16 04:10:03;;;;;;;3.15;2.40;;;;;;;18.58;78.54;99361.72;5002997;28;20022;-73
2022/08/16 04:12:29;;;;;;;2.90;2.33;;;;;;;18.57;78.45;99354.56;4997841;28;20026;-74
2022/08/16 04:14:54;;;;;;;3.65;2.85;;;;;;;18.59;78.27;99357.81;5031327;28;20098;-73
2022/08/16 04:17:20;;;;;;;3.33;2.58;;;;;;;18.57;78.48;99354.56;5039952;28;20493;-74
2022/08/16 04:19:46;;;;;;;3.17;2.28;;;;;;;18.56;78.88;99355.75;5033647;28;20439;-73
2022/08/16 04:22:12;;;;;;;5.53;2.97;;;;;;;18.55;78.41;99351.34;5031032;28;20021;-72
2022/08/16 04:24:37;;;;;;;4.57;3.58;;;;;;;18.52;78.66;99357.59;5017027;28;20095;-73
2022/08/16 04:27:03;;;;;;;3.55;3.25;;;;;;;18.43;78.92;99351.38;5042927;28;20021;-74
2022/08/16 04:29:29;;;;;;;3.33;2.70;;;;;;;18.40;79.03;99343.72;5029698;28;20025;-74
2022/08/16 04:31:55;;;;;;;2.45;2.22;;;;;;;18.39;79.25;99336.59;5019269;28;20033;-73
2022/08/16 04:34:20;;;;;;;4.07;2.63;;;;;;;18.40;79.45;99349.25;5020844;28;20566;-73
2022/08/16 04:36:47;;;;;;;7.70;4.53;;;;;;;18.42;78.99;99346.97;5037400;28;20475;-74
2022/08/16 04:39:12;;;;;;;7.97;4.32;;;;;;;18.42;79.46;99346.97;5018333;28;20432;-74
2022/08/16 04:41:38;;;;;;;5.90;3.90;;;;;;;18.41;79.06;99350.88;5015231;28;20045;-73
2022/08/16 04:44:04;;;;;;;4.47;3.42;;;;;;;18.40;78.79;99352.03;5011423;28;20110;-73
2022/08/16 04:46:29;;;;;;;2.72;2.53;;;;;;;18.31;78.90;99350.19;5034735;28;20072;-73
2022/08/16 04:48:55;;;;;;;4.22;3.45;;;;;;;18.38;78.99;99357.13;5015635;28;20017;-73
2022/08/16 04:51:20;;;;;;;5.03;4.07;;;;;;;18.39;79.11;99356.78;5022344;28;20033;-74
2022/08/16 04:53:46;;;;;;;7.20;3.95;;;;;;;18.44;79.25;99358.50;5034437;28;20033;-74
2022/08/16 04:56:11;;;;;;;8.65;5.90;;;;;;;18.44;79.48;99362.09;5021991;28;20504;-75
2022/08/16 04:58:36;;;;;;;8.02;5.43;;;;;;;18.41;79.38;99362.78;5035187;28;20065;-75
2022/08/16 05:01:03;;;;;;;9.82;5.60;;;;;;;18.38;80.17;99355.16;5035401;28;20331;-73
2022/08/16 05:03:28;;;;;;;6.53;4.35;;;;;;;18.31;79.95;99352.97;5034970;28;20468;-74
2022/08/16 05:05:54;;;;;;;5.80;5.00;;;;;;;18.30;80.18;99356.88;5014313;28;20025;-75
2022/08/16 05:08:20;;;;;;;5.72;4.70;;;;;;;18.27;80.37;99362.31;5016421;28;20025;-74
2022/08/16 05:10:45;;;;;;;6.05;4.88;;;;;;;18.25;80.54;99359.88;5029128;28;20030;-74
2022/08/16 05:13:11;;;;;;;8.02;5.53;;;;;;;18.24;80.28;99371.28;5017908;28;20064;-73
2022/08/16 05:15:37;;;;;;;7.75;4.80;;;;;;;18.21;80.82;99358.94;5027839;28;20025;-74
2022/08/16 05:18:03;;;;;;;4.60;4.13;;;;;;;18.25;81.17;99364.59;5020887;28;20101;-74
2022/08/16 05:20:29;;;;;;;6.53;3.55;;;;;;;18.24;81.11;99358.25;5046234;28;20067;-74
2022/08/16 05:22:54;;;;;;;4.72;3.60;;;;;;;18.24;80.82;99368.53;5022935;28;20025;-75
2022/08/16 05:25:20;;;;;;;6.00;4.82;;;;;;;18.27;80.78;99373.38;5016708;28;20032;-73
2022/08/16 05:27:46;;;;;;;9.20;5.32;;;;;;;18.29;80.88;99373.81;5036287;28;20021;-73
2022/08/16 05:30:13;;;;;;;8.68;4.95;;;;;;;18.35;80.47;99382.72;5036775;28;20116;-74
2022/08/16 05:32:40;;;;;;;8.18;5.80;;;;;;;18.39;81.24;99386.41;5036759;28;20487;-74
2022/08/16 05:35:08;;;;;;;11.65;6.60;;;;;;;18.44;80.42;99386.19;5023782;28;20025;-73
2022/08/16 05:37:35;;;;;;;7.05;5.70;;;;;;;18.46;80.94;99384.69;5039581;28;20041;-75
2022/08/16 05:40:01;;;;;;;12.38;5.65;;;;;;;18.47;80.37;99388.25;5040857;28;20072;-75
2022/08/16 05:42:27;;;;;;;8.27;4.80;;;;;;;18.50;80.73;99384.81;5017011;28;20025;-75
2022/08/16 05:44:52;;;;;;;7.55;4.65;;;;;;;18.49;80.43;99385.97;5034056;28;20384;-76
2022/08/16 05:47:17;;;;;;;6.78;4.20;;;;;;;18.53;80.61;99386.91;5007835;28;20033;-74
2022/08/16 05:49:43;;;;;;;5.95;4.95;;;;;;;18.60;80.04;99392.66;4997473;28;20018;-75
2022/08/16 05:52:09;;;;;;;6.60;4.80;;;;;;;18.71;79.93;99392.22;5033981;28;20035;-74
2022/08/16 05:54:35;;;;;;;4.82;3.63;;;;;;;18.75;79.84;99390.34;5025366;28;20069;-74
2022/08/16 05:57:00;;;;;;;9.80;5.40;;;;;;;18.78;79.70;99397.97;5036509;28;20057;-74
2022/08/16 05:59:26;;;;;;;9.63;5.20;;;;;;;18.83;79.45;99393.00;5009622;28;20033;-74
2022/08/16 06:01:51;;;;;;;12.80;6.38;;;;;;;18.85;79.38;99395.41;5018264;28;20032;-74
2022/08/16 06:04:18;;;;;;;7.15;5.95;;;;;;;18.87;79.34;99395.91;5019291;28;20392;-73
2022/08/16 06:06:45;;;;;;;10.13;6.10;;;;;;;18.93;79.30;99393.72;5000733;28;20025;-73
2022/08/16 06:09:12;;;;;;;10.98;6.40;;;;;;;18.97;79.27;99398.22;5033612;28;20107;-72
2022/08/16 06:11:37;;;;;;;11.55;6.13;;;;;;;19.00;79.17;99405.84;5020197;28;20036;-72
2022/08/16 06:14:05;;;;;;;5.82;4.38;;;;;;;18.99;79.46;99415.28;4988162;28;20796;-72
2022/08/16 06:16:30;;;;;;;11.07;6.68;;;;;;;18.99;79.05;99415.28;5014534;28;20389;-74
2022/08/16 06:18:56;;;;;;;8.30;5.78;;;;;;;18.93;79.16;99418.66;4979762;28;20033;-73
2022/08/16 06:21:22;;;;;;;8.15;6.28;;;;;;;18.93;79.38;99433.31;4999172;28;20495;-74
2022/08/16 06:23:47;;;;;;;6.97;5.25;;;;;;;18.89;79.44;99440.69;4994148;28;20033;-74
2022/08/16 06:26:12;;;;;;;7.85;6.47;;;;;;;18.85;79.45;99453.56;5007178;28;20108;-75
2022/08/16 06:28:38;;;;;;;10.32;6.75;;;;;;;18.80;79.65;99457.38;4998077;28;20030;-73
2022/08/16 06:31:05;;;;;;;14.32;6.95;;;;;;;18.83;80.23;99466.97;5016793;28;20117;-71
2022/08/16 06:33:31;;;;;;;8.35;5.35;;;;;;;18.85;80.31;99467.41;4992737;28;20065;-72
2022/08/16 06:35:56;;;;;;;6.30;4.53;;;;;;;18.95;80.00;99475.34;5002099;28;20423;-74
2022/08/16 06:38:22;;;;;;;6.57;4.60;;;;;;;19.04;79.48;99477.16;4998449;28;20499;-74
2022/08/16 06:40:48;;;;;;;7.07;4.45;;;;;;;19.06;79.18;99474.88;4997058;28;20103;-73
2022/08/16 06:43:14;;;;;;;8.18;4.55;;;;;;;19.11;79.28;99477.41;5022720;28;20033;-73
2022/08/16 06:45:41;;;;;;;9.63;4.97;;;;;;;19.19;79.13;99468.97;5017410;28;20033;-74
2022/08/16 06:48:08;;;;;;;10.93;5.68;;;;;;;19.38;79.09;99475.06;4996732;28;20040;-73
2022/08/16 06:50:34;;;;;;;5.05;3.85;;;;;;;19.54;77.97;99475.97;5011438;28;20392;-74
2022/08/16 06:53:00;;;;;;;5.90;4.20;;;;;;;19.71;77.98;99472.94;5011686;28;20048;-75
2022/08/16 06:55:27;;;;;;;8.43;5.75;;;;;;;19.86;77.68;99485.28;5015640;28;20706;-76
2022/08/16 06:57:53;;;;;;;14.93;7.40;;;;;;;19.96;77.24;99478.44;5015493;28;20041;-76
2022/08/16 07:00:20;;;;;;;14.05;6.45;;;;;;;20.00;76.80;99486.84;5017536;28;20025;-75
2022/08/16 07:02:45;;;;;;;12.60;6.50;;;;;;;20.13;76.63;99487.63;5019340;28;20034;-73
2022/08/16 07:05:14;;;;;;;12.60;8.10;;;;;;;20.27;75.90;99482.47;5001997;28;20037;-75
2022/08/16 07:07:39;;;;;;;13.48;7.43;;;;;;;20.51;75.20;99480.72;5011720;28;20095;-75
2022/08/16 07:10:07;;;;;;;7.03;5.15;;;;;;;20.72;74.52;99486.03;5015909;28;20022;-74
2022/08/16 07:12:32;;;;;;;16.75;8.50;;;;;;;20.83;73.98;99480.78;5020495;28;20065;-75
2022/08/16 07:14:59;;;;;;;14.57;7.97;;;;;;;20.99;73.30;99481.56;5006608;28;20040;-74
2022/08/16 07:17:28;;;;;;;12.50;8.05;;;;;;;21.10;72.82;99482.66;5016153;28;20022;-76
2022/08/16 07:19:54;;;;;;;10.73;7.30;;;;;;;21.27;72.00;99483.44;5015181;28;20034;-75
2022/08/16 07:22:21;;;;;;;13.73;6.47;;;;;;;21.44;72.03;99477.47;4998607;28;20096;-75
2022/08/16 07:24:47;;;;;;;6.53;4.68;;;;;;;21.59;71.17;99491.72;5013918;28;20025;-70
2022/08/16 07:27:13;;;;;;;8.45;5.03;;;;;;;21.56;71.33;99490.47;5018071;28;20215;-74
2022/08/16 07:29:39;;;;;;;11.95;5.80;;;;;;;21.72;70.60;99496.00;5005983;28;20151;-72
2022/08/16 07:32:05;;;;;;;6.63;5.13;;;;;;;21.75;70.45;99506.38;5001473;28;20164;-73
2022/08/16 07:34:32;;;;;;;10.40;5.70;;;;;;;21.69;70.10;99504.28;5011781;28;20029;-75
2022/08/16 07:36:59;;;;;;;10.30;6.50;;;;;;;21.50;69.96;99502.22;4994366;28;20064;-73
2022/08/16 07:39:25;;;;;;;6.70;4.18;;;;;;;21.31;70.72;99500.22;5007604;28;20029;-75
2022/08/16 07:41:50;;;;;;;5.53;3.83;;;;;;;21.32;70.66;99501.81;5005979;28;20049;-73
2022/08/16 07:44:16;;;;;;;10.57;5.80;;;;;;;21.26;70.59;99499.31;5016964;28;20060;-73
2022/08/16 07:46:41;;;;;;;7.20;3.65;;;;;;;21.31;70.79;99501.00;4977597;28;20053;-74
2022/08/16 07:49:07;;;;;;;4.35;2.60;;;;;;;21.40;70.74;99495.25;4991596;28;20025;-75
2022/08/16 07:51:35;;;;;;;3.30;2.45;;;;;;;21.43;70.41;99492.53;4995664;28;20400;-74
2022/08/16 07:54:02;;;;;;;4.72;3.70;;;;;;;21.51;70.09;99488.00;5010254;28;20035;-76
2022/08/16 07:56:28;;;;;;;6.35;4.22;;;;;;;21.66;69.27;99489.13;5017518;28;20499;-73
2022/08/16 07:58:54;;;;;;;3.22;2.22;;;;;;;21.86;69.82;99486.34;5015385;28;20096;-74
2022/08/16 08:01:22;;;;;;;1.95;1.80;;;;;;;22.14;68.58;99477.78;4996332;28;20373;-75
2022/08/16 08:03:48;;;;;;;1.77;1.67;;;;;;;22.42;67.83;99485.91;4996638;28;20021;-76
2022/08/16 08:06:14;;;;;;;3.60;2.33;;;;;;;22.64;67.35;99483.50;4998774;28;20032;-75
2022/08/16 08:08:41;;;;;;;4.75;3.50;;;;;;;22.71;66.72;99477.28;4981451;28;20034;-74
2022/08/16 08:11:07;;;;;;;6.00;3.78;;;;;;;22.74;65.96;99468.16;4997921;28;20488;-74
2022/08/16 08:13:32;;;;;;;4.05;2.80;;;;;;;22.98;66.04;99473.38;4989623;28;20081;-75
2022/08/16 08:15:58;;;;;;;5.25;3.08;;;;;;;23.12;64.77;99470.00;4990417;28;20030;-74
2022/08/16 08:18:24;;;;;;;3.75;2.00;;;;;;;23.34;64.66;99464.78;4982757;28;20087;-74
2022/08/16 08:20:49;;;;;;;3.58;1.85;;;;;;;23.61;64.02;99475.91;5003031;28;20026;-75
2022/08/16 08:23:14;;;;;;;3.35;2.30;;;;;;;23.77;63.05;99484.91;5008566;28;20030;-75
2022/08/16 08:25:41;;;;;;;4.93;2.13;;;;;;;23.75;62.54;99490.06;4987742;28;20034;-74
2022/08/16 08:28:07;;;;;;;2.42;1.67;;;;;;;23.64;62.52;99508.63;5012143;28;20025;-74
2022/08/16 08:30:33;;;;;;;4.65;1.90;;;;;;;23.37;62.29;99510.63;5007451;28;20084;-75
2022/08/16 08:32:59;;;;;;;5.43;2.60;;;;;;;23.04;62.36;99512.84;5011858;28;20045;-72
2022/08/16 08:35:25;;;;;;;3.47;2.70;;;;;;;22.88;62.89;99528.91;5012778;28;20064;-73
2022/08/16 08:37:50;;;;;;;6.30;4.20;;;;;;;22.65;63.85;99522.16;5013162;28;20026;-74
2022/08/16 08:40:16;;;;;;;8.48;3.97;;;;;;;22.54;64.60;99525.91;4985535;28;20033;-74
2022/08/16 08:42:42;;;;;;;5.15;3.20;;;;;;;22.60;64.59;99530.78;4999543;28;20034;-75
2022/08/16 08:45:10;;;;;;;5.30;3.20;;;;;;;22.79;63.57;99538.34;4996410;28;20034;-75
2022/08/16 08:47:36;;;;;;;3.75;2.38;;;;;;;22.91;63.01;99533.75;4988463;28;20464;-73
2022/08/16 08:50:03;;;;;;;2.58;2.15;;;;;;;23.27;62.11;99528.81;5013182;28;20038;-74
2022/08/16 08:52:29;;;;;;;7.10;2.47;;;;;;;23.78;60.91;99533.94;5014006;28;20049;-74
2022/08/16 08:54:54;;;;;;;3.17;2.00;;;;;;;23.87;59.86;99533.69;4996003;28;20038;-72
2022/08/16 08:57:20;;;;;;;2.67;2.03;;;;;;;24.09;59.64;99534.00;5013907;28;20041;-74
2022/08/16 08:59:46;;;;;;;3.95;2.00;;;;;;;24.44;59.08;99528.00;5018985;28;20119;-75
2022/08/16 09:02:14;;;;;;;2.10;1.88;;;;;;;24.71;57.69;99525.94;4995939;28;20036;-74
2022/08/16 09:04:40;;;;;;;3.25;1.70;;;;;;;24.85;57.52;99530.88;4986079;28;20038;-73
2022/08/16 09:07:06;;;;;;;4.45;1.88;;;;;;;25.12;56.87;99522.31;5010753;28;20139;-73
2022/08/16 09:09:32;;;;;;;1.83;1.73;;;;;;;25.29;55.71;99526.47;4984418;28;20852;-73
2022/08/16 09:11:57;;;;;;;3.38;1.90;;;;;;;25.00;55.62;99526.22;5003179;28;20091;-74
2022/08/16 09:14:23;;;;;;;1.63;1.20;;;;;;;25.04;55.85;99529.84;5012441;28;20145;-73
2022/08/16 09:16:50;;;;;;;5.57;1.45;;;;;;;25.16;55.09;99528.75;4979266;28;20117;-73
2022/08/16 09:19:16;;;;;;;1.30;1.20;;;;;;;25.38;55.00;99538.16;5013685;28;20044;-73
2022/08/16 09:21:41;;;;;;;2.72;2.10;;;;;;;25.46;53.86;99552.97;4995556;28;20030;-72
2022/08/16 09:24:07;;;;;;;6.25;3.08;;;;;;;25.33;54.05;99548.88;5014241;28;20316;-73
2022/08/16 09:26:32;;;;;;;6.15;2.50;;;;;;;25.04;53.43;99559.81;4997409;28;20067;-73
2022/08/16 09:28:58;;;;;;;1.98;1.40;;;;;;;25.00;54.05;99564.56;4979299;28;20072;-72
2022/08/16 09:31:23;;;;;;;3.97;2.13;;;;;;;25.17;54.13;99558.31;4980256;28;20038;-73
2022/08/16 09:33:49;;;;;;;3.13;2.15;;;;;;;25.10;53.75;99561.03;5014075;28;20022;-73
2022/08/16 09:36:15;;;;;;;3.90;2.00;;;;;;;25.24;53.61;99563.19;5009937;28;20076;-72
2022/08/16 09:38:41;;;;;;;4.40;2.28;;;;;;;25.35;53.07;99569.69;5011083;28;20052;-73
2022/08/16 09:41:09;;;;;;;3.47;1.58;;;;;;;25.14;52.22;99570.28;4995015;28;20543;-73
2022/08/16 09:43:38;;;;;;;4.25;1.60;;;;;;;24.84;52.62;99567.63;5017313;28;20034;-72
2022/08/16 09:46:06;;;;;;;1.92;1.48;;;;;;;24.70;53.38;99577.44;4994860;28;20770;-73
2022/08/16 09:48:34;;;;;;;1.10;0.93;;;;;;;24.65;53.42;99576.97;5010216;28;20073;-73
2022/08/16 09:50:59;;;;;;;0.80;0.80;;;;;;;24.52;54.02;99579.22;4994715;28;20056;-73
2022/08/16 09:53:25;;;;;;;2.55;1.38;;;;;;;24.33;53.98;99578.19;5014456;28;20038;-73
2022/08/16 09:55:54;;;;;;;2.00;1.50;;;;;;;24.29;53.67;99579.34;4999242;28;20053;-74
2022/08/16 09:58:23;;;;;;;1.33;1.00;;;;;;;24.29;54.14;99576.53;4999642;28;20396;-73
2022/08/16 10:00:49;;;;;;;1.00;0.90;;;;;;;24.26;54.22;99577.31;4996777;28;20037;-72
2022/08/16 10:03:16;;;;;;;0.73;0.73;;;;;;;24.21;54.64;99576.44;4997573;28;20030;-73
2022/08/16 10:05:42;;;;;;;1.00;0.90;;;;;;;24.23;54.50;99578.84;5017650;28;20026;-73
2022/08/16 10:08:08;;;;;;;0.80;0.80;;;;;;;24.41;54.15;99573.47;4996947;28;20939;-73
2022/08/16 10:10:34;;;;;;;1.23;0.90;;;;;;;24.70;54.02;99577.44;5015117;28;20057;-73
2022/08/16 10:13:13;;;;;;;1.55;1.13;;;;;;;24.97;53.73;99582.09;5013130;28;20052;-74
2022/08/16 10:15:43;;;;;;;0.90;0.90;;;;;;;25.17;53.00;99577.91;5016586;28;20046;-74
2022/08/16 10:18:11;;;;;;;1.02;0.80;;;;;;;25.39;52.85;99586.50;5014676;28;20028;-73
2022/08/16 10:20:43;;;;;;;0.95;0.90;;;;;;;25.43;53.22;99582.53;5016327;28;20637;-73
2022/08/16 10:23:14;;;;;;;1.25;1.02;;;;;;;25.44;52.87;99577.78;5011511;28;20034;-73
2022/08/16 10:25:42;;;;;;;1.17;0.98;;;;;;;25.44;53.15;99589.75;5013600;28;20061;-75
2022/08/16 10:28:09;;;;;;;2.97;1.10;;;;;;;25.66;53.29;99580.72;5015211;28;20021;-73
2022/08/16 10:30:36;;;;;;;1.40;0.85;;;;;;;25.84;53.17;99572.44;4997367;28;20047;-75
2022/08/16 10:33:02;;;;;;;0.90;0.90;;;;;;;26.03;52.53;99574.19;4995968;28;20014;-73
2022/08/16 10:35:27;;;;;;;1.33;0.95;;;;;;;26.26;51.93;99579.50;5011584;28;20041;-73
2022/08/16 10:37:53;;;;;;;1.48;0.90;;;;;;;26.43;52.10;99569.53;4993681;28;20473;-73
2022/08/16 10:40:19;;;;;;;2.47;1.00;;;;;;;26.56;51.91;99572.78;5012349;28;20544;-73
2022/08/16 10:42:44;;;;;;;1.75;1.10;;;;;;;26.71;51.74;99568.03;4994640;28;20026;-72
2022/08/16 10:45:10;;;;;;;1.60;0.90;;;;;;;26.77;51.54;99570.06;5001390;28;20687;-72
2022/08/16 10:47:37;;;;;;;1.33;0.93;;;;;;;26.59;51.66;99566.38;4998679;28;20144;-73
2022/08/16 10:50:04;;;;;;;0.80;0.80;;;;;;;26.27;52.15;99572.72;5009358;28;20551;-74
2022/08/16 10:52:30;;;;;;;2.10;0.70;;;;;;;25.99;52.77;99567.72;5013995;28;20472;-75
2022/08/16 10:54:55;;;;;;;1.30;0.85;;;;;;;25.81;53.00;99574.00;4997087;28;20030;-75
2022/08/16 10:57:21;;;;;;;2.15;1.00;;;;;;;25.61;53.04;99570.69;5018811;28;20041;-75
2022/08/16 10:59:46;;;;;;;3.58;1.00;;;;;;;25.39;53.28;99573.34;5020027;28;20030;-75
2022/08/16 11:02:12;;;;;;;2.25;1.20;;;;;;;25.31;53.37;99568.88;4996331;28;20472;-74
2022/08/16 11:04:38;;;;;;;1.20;1.10;;;;;;;25.28;54.07;99572.41;5014374;28;20038;-75
2022/08/16 11:07:04;;;;;;;1.20;0.80;;;;;;;25.27;53.65;99574.38;5015067;28;20109;-74
2022/08/16 11:09:30;;;;;;;1.75;0.80;;;;;;;25.42;53.85;99572.56;5001920;28;20104;-75
2022/08/16 11:11:55;;;;;;;1.77;0.93;;;;;;;25.56;52.96;99563.44;5004300;28;20086;-72
2022/08/16 11:14:23;;;;;;;1.25;0.90;;;;;;;25.73;53.18;99559.19;5024960;28;20081;-73
2022/08/16 11:16:48;;;;;;;1.85;0.60;;;;;;;25.91;52.50;99573.28;5034812;28;20061;-74
2022/08/16 11:19:14;;;;;;;1.30;1.05;;;;;;;26.05;52.08;99572.59;4986844;28;20116;-74
2022/08/16 11:21:42;;;;;;;1.08;0.88;;;;;;;25.92;52.08;99583.28;5044743;28;20112;-73
2022/08/16 11:24:07;;;;;;;3.20;1.15;;;;;;;25.76;52.63;99577.19;5010690;28;20029;-73
2022/08/16 11:26:32;;;;;;;0.90;0.75;;;;;;;25.58;53.30;99577.88;5011383;28;20033;-75
2022/08/16 11:28:58;;;;;;;0.80;0.80;;;;;;;25.36;53.23;99588.06;5036061;28;20470;-74